Aktuální počasí v Česku a ve světě - METAR

Seznam meteostanic umístěných nejčasteji na letišti v ČR a ve světě

Vyhledat místa podle abecedy:
A B C D E F G H I J K L M N O P Q R S T U V W X Y Z

Filtrovat:

ID stanice:
a/nebo
Název místa (fulltext):
 
Místo (ID)Naposledy načteno 
Odense (EKOD) 19.01.2021 15:50 UTC Zobrazit METAR
EKOD 191550Z 19007KT 3000 BR OVC003 03/02 Q0998
Odesa (UKOO) 01.02.2018 08:00 UTC Zobrazit METAR
UKOO 010800Z CAVOK 07/04 Q1018 R16/190056 NOSIG
Osijek (LDOS) 19.01.2021 21:00 UTC Zobrazit METAR
LDOS 192100Z 19007KT CAVOK M00/M02 Q1019
Oslo (ENGM) 19.01.2021 20:50 UTC Zobrazit METAR
ENGM 192050Z 02005KT 4100 -SN BR SCT006 BKN008 M02/M02 Q0999 TEMPO 2500 -SN BR
Ostend (EBOS) 19.01.2021 20:50 UTC Zobrazit METAR
EBOS 192050Z 20017KT 9999 FEW010 SCT025 07/05 Q1004 NOSIG
Ostrava (LKMT) 19.01.2021 21:00 UTC Zobrazit METAR
LKMT 192100Z 20014KT 2000 SN OVC015 01/M01 Q1010 R04/29//95 TEMPO 5000 -SN
Ottawa (CYOW) 19.01.2021 21:00 UTC Zobrazit METAR
CYOW 192100Z 09003KT 3SM -SN OVC020 M08/M10 A2992 RMK SC8 /S01/ SLP142
Ouagadougou (DFFD) 19.01.2021 21:00 UTC Zobrazit METAR
DFFD 192100Z 05005KT 6000 NSC 26/03 Q1013 NOSIG
Oulu (EFOU) 19.01.2021 20:50 UTC Zobrazit METAR
EFOU 192050Z AUTO 07007KT 9999 -SHSN OVC032 M06/M07 Q1010
Reklama

Počasí na Váš email

Emaily jsou bez reklamy a bez spamu



Odhlásit newsletter


Další české internetové stránky (nejen) o počasí najdete v katalogu TOPlist - weby o počasí nebo vyhledejte na internetu, co jste tu na 🌞 Slunečnu ⛅ zatím nenašli:
⭐ Přidat Slunečno.cz do oblíbených | 🏠 Nastavit Slunečno.cz jako HOMEPAGE

⬆️ Posunout stránku nahoru ⬆️
Reklama